sensor_id;sensor_type;location;lat;lon;timestamp;pressure;altitude;pressure_sealevel;temperature;humidity
49541;BME280;35432;43.566;1.398;2023-04-01T00:00:46;100253.91;;;11.85;63.42
49541;BME280;35432;43.566;1.398;2023-04-01T00:03:11;100259.19;;;11.84;63.71
49541;BME280;35432;43.566;1.398;2023-04-01T00:05:37;100258.34;;;11.82;63.75
49541;BME280;35432;43.566;1.398;2023-04-01T00:08:02;100263.69;;;11.75;63.74
49541;BME280;35432;43.566;1.398;2023-04-01T00:10:28;100269.84;;;11.74;63.44
49541;BME280;35432;43.566;1.398;2023-04-01T00:12:53;100263.72;;;11.72;63.30
49541;BME280;35432;43.566;1.398;2023-04-01T00:15:19;100272.50;;;11.73;63.50
49541;BME280;35432;43.566;1.398;2023-04-01T00:17:44;100273.41;;;11.70;63.18
49541;BME280;35432;43.566;1.398;2023-04-01T00:20:10;100269.91;;;11.65;63.78
49541;BME280;35432;43.566;1.398;2023-04-01T00:22:36;100265.53;;;11.64;63.43
49541;BME280;35432;43.566;1.398;2023-04-01T00:25:02;100270.81;;;11.61;63.27
49541;BME280;35432;43.566;1.398;2023-04-01T00:27:27;100258.56;;;11.58;63.44
49541;BME280;35432;43.566;1.398;2023-04-01T00:29:53;100262.09;;;11.56;63.51
49541;BME280;35432;43.566;1.398;2023-04-01T00:32:18;100257.69;;;11.53;63.37
49541;BME280;35432;43.566;1.398;2023-04-01T00:34:43;100248.09;;;11.47;63.34
49541;BME280;35432;43.566;1.398;2023-04-01T00:37:09;100254.25;;;11.46;63.47
49541;BME280;35432;43.566;1.398;2023-04-01T00:39:35;100255.16;;;11.42;63.59
49541;BME280;35432;43.566;1.398;2023-04-01T00:42:02;100242.84;;;11.41;63.74
49541;BME280;35432;43.566;1.398;2023-04-01T00:44:33;100243.75;;;11.39;63.64
49541;BME280;35432;43.566;1.398;2023-04-01T00:46:59;100249.94;;;11.36;63.55
49541;BME280;35432;43.566;1.398;2023-04-01T00:49:33;100251.69;;;11.34;63.57
49541;BME280;35432;43.566;1.398;2023-04-01T00:52:02;100247.31;;;11.31;63.72
49541;BME280;35432;43.566;1.398;2023-04-01T00:54:29;100251.75;;;11.28;63.62
49541;BME280;35432;43.566;1.398;2023-04-01T00:57:01;100250.88;;;11.24;64.13
49541;BME280;35432;43.566;1.398;2023-04-01T00:59:31;100251.78;;;11.23;63.87
49541;BME280;35432;43.566;1.398;2023-04-01T01:02:01;100241.25;;;11.22;63.80
49541;BME280;35432;43.566;1.398;2023-04-01T01:04:32;100245.66;;;11.23;63.77
49541;BME280;35432;43.566;1.398;2023-04-01T01:07:44;100246.53;;;11.22;64.47
49541;BME280;35432;43.566;1.398;2023-04-01T01:10:17;100255.31;;;11.17;64.07
49541;BME280;35432;43.566;1.398;2023-04-01T01:15:25;100257.09;;;11.15;64.36
49541;BME280;35432;43.566;1.398;2023-04-01T01:22:59;100256.25;;;11.12;64.30
49541;BME280;35432;43.566;1.398;2023-04-01T01:25:42;100257.16;;;11.09;64.65
49541;BME280;35432;43.566;1.398;2023-04-01T01:36:15;100251.00;;;11.10;64.97
49541;BME280;35432;43.566;1.398;2023-04-01T01:38:42;100246.56;;;11.12;64.78
49541;BME280;35432;43.566;1.398;2023-04-01T01:41:08;100253.56;;;11.16;64.83
49541;BME280;35432;43.566;1.398;2023-04-01T01:43:41;100251.81;;;11.18;64.90
49541;BME280;35432;43.566;1.398;2023-04-01T01:46:11;100243.91;;;11.22;64.63
49541;BME280;35432;43.566;1.398;2023-04-01T01:48:38;100245.63;;;11.24;64.76
49541;BME280;35432;43.566;1.398;2023-04-01T01:51:06;100242.97;;;11.26;64.66
49541;BME280;35432;43.566;1.398;2023-04-01T01:53:32;100244.72;;;11.28;64.36
49541;BME280;35432;43.566;1.398;2023-04-01T01:55:57;100237.69;;;11.29;64.47
49541;BME280;35432;43.566;1.398;2023-04-01T01:58:35;100234.16;;;11.30;64.43
49541;BME280;35432;43.566;1.398;2023-04-01T02:01:08;100237.69;;;11.27;64.30
49541;BME280;35432;43.566;1.398;2023-04-01T02:03:37;100228.03;;;11.26;64.27
49541;BME280;35432;43.566;1.398;2023-04-01T02:06:07;100235.06;;;11.26;64.00
49541;BME280;35432;43.566;1.398;2023-04-01T02:08:37;100225.41;;;11.25;63.62
49541;BME280;35432;43.566;1.398;2023-04-01T02:11:13;100221.03;;;11.22;64.18
49541;BME280;35432;43.566;1.398;2023-04-01T02:16:16;100207.91;;;11.14;64.83
49541;BME280;35432;43.566;1.398;2023-04-01T02:18:48;100208.81;;;11.10;64.69
49541;BME280;35432;43.566;1.398;2023-04-01T02:21:16;100214.97;;;11.09;64.46
49541;BME280;35432;43.566;1.398;2023-04-01T02:23:44;100218.50;;;11.08;64.71
49541;BME280;35432;43.566;1.398;2023-04-01T02:26:11;100222.91;;;11.06;65.11
49541;BME280;35432;43.566;1.398;2023-04-01T02:28:38;100216.81;;;11.01;65.15
49541;BME280;35432;43.566;1.398;2023-04-01T02:31:06;100220.28;;;11.01;64.89
49541;BME280;35432;43.566;1.398;2023-04-01T02:33:33;100220.31;;;10.98;64.99
49541;BME280;35432;43.566;1.398;2023-04-01T02:35:59;100218.56;;;10.96;65.20
49541;BME280;35432;43.566;1.398;2023-04-01T02:38:24;100206.28;;;10.95;65.10
49541;BME280;35432;43.566;1.398;2023-04-01T02:40:59;100204.53;;;10.94;64.89
49541;BME280;35432;43.566;1.398;2023-04-01T02:43:26;100215.13;;;10.87;65.01
49541;BME280;35432;43.566;1.398;2023-04-01T02:45:51;100210.75;;;10.82;65.71
49541;BME280;35432;43.566;1.398;2023-04-01T02:48:17;100215.16;;;10.81;65.20
49541;BME280;35432;43.566;1.398;2023-04-01T02:50:42;100222.19;;;10.79;65.48
49541;BME280;35432;43.566;1.398;2023-04-01T02:53:08;100215.19;;;10.78;65.49
49541;BME280;35432;43.566;1.398;2023-04-01T02:55:34;100216.06;;;10.77;65.23
49541;BME280;35432;43.566;1.398;2023-04-01T02:57:59;100216.06;;;10.75;65.62
49541;BME280;35432;43.566;1.398;2023-04-01T03:00:25;100209.03;;;10.74;65.48
49541;BME280;35432;43.566;1.398;2023-04-01T03:02:51;100213.47;;;10.74;65.28
49541;BME280;35432;43.566;1.398;2023-04-01T03:05:17;100202.91;;;10.71;65.68
49541;BME280;35432;43.566;1.398;2023-04-01T03:07:43;100205.53;;;10.71;66.00
49541;BME280;35432;43.566;1.398;2023-04-01T03:10:09;100208.19;;;10.71;65.56
49541;BME280;35432;43.566;1.398;2023-04-01T03:12:34;100213.47;;;10.68;65.84
49541;BME280;35432;43.566;1.398;2023-04-01T03:15:00;100208.22;;;10.65;65.90
49541;BME280;35432;43.566;1.398;2023-04-01T03:17:25;100206.47;;;10.63;66.32
49541;BME280;35432;43.566;1.398;2023-04-01T03:19:51;100199.47;;;10.62;66.09
49541;BME280;35432;43.566;1.398;2023-04-01T03:22:16;100201.22;;;10.59;66.62
49541;BME280;35432;43.566;1.398;2023-04-01T03:24:41;100190.69;;;10.60;66.33
49541;BME280;35432;43.566;1.398;2023-04-01T03:27:07;100199.47;;;10.59;66.21
49541;BME280;35432;43.566;1.398;2023-04-01T03:29:32;100187.19;;;10.58;66.40
49541;BME280;35432;43.566;1.398;2023-04-01T03:31:58;100194.22;;;10.56;66.48
49541;BME280;35432;43.566;1.398;2023-04-01T03:34:24;100192.44;;;10.57;66.63
49541;BME280;35432;43.566;1.398;2023-04-01T03:36:51;100197.72;;;10.58;66.41
49541;BME280;35432;43.566;1.398;2023-04-01T03:39:17;100193.34;;;10.57;66.60
49541;BME280;35432;43.566;1.398;2023-04-01T03:41:44;100190.72;;;10.57;66.68
49541;BME280;35432;43.566;1.398;2023-04-01T03:44:10;100199.47;;;10.58;66.92
49541;BME280;35432;43.566;1.398;2023-04-01T03:46:35;100188.97;;;10.56;66.92
49541;BME280;35432;43.566;1.398;2023-04-01T03:49:01;100192.47;;;10.55;66.67
49541;BME280;35432;43.566;1.398;2023-04-01T03:51:27;100188.06;;;10.56;66.66
49541;BME280;35432;43.566;1.398;2023-04-01T03:53:52;100184.56;;;10.57;66.56
49541;BME280;35432;43.566;1.398;2023-04-01T03:56:17;100173.16;;;10.56;66.52
49541;BME280;35432;43.566;1.398;2023-04-01T03:58:43;100191.59;;;10.56;66.84
49541;BME280;35432;43.566;1.398;2023-04-01T04:01:20;100181.91;;;10.57;66.85
49541;BME280;35432;43.566;1.398;2023-04-01T04:03:46;100187.19;;;10.58;66.62
49541;BME280;35432;43.566;1.398;2023-04-01T04:06:15;100183.69;;;10.59;66.91
49541;BME280;35432;43.566;1.398;2023-04-01T04:08:41;100182.78;;;10.60;67.00
49541;BME280;35432;43.566;1.398;2023-04-01T04:11:06;100188.94;;;10.61;66.52
49541;BME280;35432;43.566;1.398;2023-04-01T04:13:32;100188.91;;;10.62;66.99
49541;BME280;35432;43.566;1.398;2023-04-01T04:15:58;100180.13;;;10.63;66.84
49541;BME280;35432;43.566;1.398;2023-04-01T04:18:23;100174.88;;;10.63;66.51
49541;BME280;35432;43.566;1.398;2023-04-01T04:20:49;100179.25;;;10.66;66.59
49541;BME280;35432;43.566;1.398;2023-04-01T04:23:16;100174.84;;;10.67;66.46
49541;BME280;35432;43.566;1.398;2023-04-01T04:25:57;100180.13;;;10.67;66.71
49541;BME280;35432;43.566;1.398;2023-04-01T04:28:23;100180.13;;;10.67;66.68
49541;BME280;35432;43.566;1.398;2023-04-01T04:30:49;100173.09;;;10.66;66.40
49541;BME280;35432;43.566;1.398;2023-04-01T04:33:15;100175.72;;;10.69;66.46
49541;BME280;35432;43.566;1.398;2023-04-01T04:35:40;100186.25;;;10.69;66.35
49541;BME280;35432;43.566;1.398;2023-04-01T04:38:06;100175.72;;;10.66;66.40
49541;BME280;35432;43.566;1.398;2023-04-01T04:40:31;100169.59;;;10.68;66.61
49541;BME280;35432;43.566;1.398;2023-04-01T04:42:56;100178.34;;;10.69;66.61
49541;BME280;35432;43.566;1.398;2023-04-01T04:45:22;100188.00;;;10.70;66.22
49541;BME280;35432;43.566;1.398;2023-04-01T04:47:47;100183.63;;;10.70;66.49
49541;BME280;35432;43.566;1.398;2023-04-01T04:50:12;100180.09;;;10.70;66.67
49541;BME280;35432;43.566;1.398;2023-04-01T04:52:38;100186.25;;;10.70;66.71
49541;BME280;35432;43.566;1.398;2023-04-01T04:55:04;100187.09;;;10.71;66.38
49541;BME280;35432;43.566;1.398;2023-04-01T04:57:29;100181.84;;;10.71;66.68
49541;BME280;35432;43.566;1.398;2023-04-01T04:59:55;100179.22;;;10.71;66.69
49541;BME280;35432;43.566;1.398;2023-04-01T05:02:20;100186.25;;;10.70;66.54
49541;BME280;35432;43.566;1.398;2023-04-01T05:04:46;100196.78;;;10.69;66.38
49541;BME280;35432;43.566;1.398;2023-04-01T05:07:11;100196.78;;;10.69;66.79
49541;BME280;35432;43.566;1.398;2023-04-01T05:09:36;100181.88;;;10.68;66.40
49541;BME280;35432;43.566;1.398;2023-04-01T05:12:02;100188.03;;;10.68;66.38
49541;BME280;35432;43.566;1.398;2023-04-01T05:14:27;100180.13;;;10.68;66.93
49541;BME280;35432;43.566;1.398;2023-04-01T05:16:53;100174.84;;;10.68;66.22
49541;BME280;35432;43.566;1.398;2023-04-01T05:19:19;100172.22;;;10.67;66.53
49541;BME280;35432;43.566;1.398;2023-04-01T05:21:45;100172.22;;;10.67;66.44
49541;BME280;35432;43.566;1.398;2023-04-01T05:24:10;100180.13;;;10.67;66.75
49541;BME280;35432;43.566;1.398;2023-04-01T05:26:36;100172.22;;;10.68;66.54
49541;BME280;35432;43.566;1.398;2023-04-01T05:29:03;100177.47;;;10.71;66.75
49541;BME280;35432;43.566;1.398;2023-04-01T05:31:29;100176.56;;;10.71;66.51
49541;BME280;35432;43.566;1.398;2023-04-01T05:33:54;100188.00;;;10.71;66.63
49541;BME280;35432;43.566;1.398;2023-04-01T05:36:20;100176.56;;;10.71;66.58
49541;BME280;35432;43.566;1.398;2023-04-01T05:38:45;100173.94;;;10.71;66.40
49541;BME280;35432;43.566;1.398;2023-04-01T05:41:11;100178.31;;;10.72;66.40
49541;BME280;35432;43.566;1.398;2023-04-01T05:43:38;100185.38;;;10.71;66.68
49541;BME280;35432;43.566;1.398;2023-04-01T05:46:04;100179.22;;;10.71;66.40
49541;BME280;35432;43.566;1.398;2023-04-01T05:48:30;100189.78;;;10.69;66.61
49541;BME280;35432;43.566;1.398;2023-04-01T05:50:55;100180.97;;;10.69;66.31
49541;BME280;35432;43.566;1.398;2023-04-01T05:53:20;100191.53;;;10.70;66.57
49541;BME280;35432;43.566;1.398;2023-04-01T05:55:46;100193.25;;;10.73;66.22
49541;BME280;35432;43.566;1.398;2023-04-01T05:58:11;100195.00;;;10.77;66.61
49541;BME280;35432;43.566;1.398;2023-04-01T06:00:36;100197.59;;;10.80;66.37
49541;BME280;35432;43.566;1.398;2023-04-01T06:03:02;100199.34;;;10.81;66.02
49541;BME280;35432;43.566;1.398;2023-04-01T06:05:29;100201.09;;;10.85;66.30
49541;BME280;35432;43.566;1.398;2023-04-01T06:07:59;100202.81;;;10.89;65.94
49541;BME280;35432;43.566;1.398;2023-04-01T06:15:37;100202.78;;;10.93;66.00
49541;BME280;35432;43.566;1.398;2023-04-01T06:26:32;100221.22;;;10.94;66.12
49541;BME280;35432;43.566;1.398;2023-04-01T06:36:53;100221.16;;;11.03;65.82
49541;BME280;35432;43.566;1.398;2023-04-01T06:47:43;100218.47;;;11.13;65.71
49541;BME280;35432;43.566;1.398;2023-04-01T06:50:30;100220.16;;;11.18;65.71
49541;BME280;35432;43.566;1.398;2023-04-01T06:53:10;100220.16;;;11.23;65.93
49541;BME280;35432;43.566;1.398;2023-04-01T06:56:08;100215.75;;;11.27;65.35
49541;BME280;35432;43.566;1.398;2023-04-01T06:58:42;100225.41;;;11.28;65.23
49541;BME280;35432;43.566;1.398;2023-04-01T07:01:18;100222.72;;;11.31;65.15
49541;BME280;35432;43.566;1.398;2023-04-01T07:06:50;100220.06;;;11.36;65.13
49541;BME280;35432;43.566;1.398;2023-04-01T07:09:24;100218.25;;;11.39;65.16
49541;BME280;35432;43.566;1.398;2023-04-01T07:11:53;100221.75;;;11.43;65.26
49541;BME280;35432;43.566;1.398;2023-04-01T07:17:09;100222.59;;;11.48;64.75
49541;BME280;35432;43.566;1.398;2023-04-01T07:19:58;100214.66;;;11.53;64.78
49541;BME280;35432;43.566;1.398;2023-04-01T07:22:40;100219.00;;;11.57;65.06
49541;BME280;35432;43.566;1.398;2023-04-01T07:25:17;100216.31;;;11.60;64.86
49541;BME280;35432;43.566;1.398;2023-04-01T07:27:45;100215.38;;;11.67;64.87
49541;BME280;35432;43.566;1.398;2023-04-01T07:30:21;100214.47;;;11.68;64.58
49541;BME280;35432;43.566;1.398;2023-04-01T07:33:07;100207.44;;;11.72;64.53
49541;BME280;35432;43.566;1.398;2023-04-01T07:35:59;100204.78;;;11.72;64.48
49541;BME280;35432;43.566;1.398;2023-04-01T07:41:32;100211.59;;;11.95;64.08
49541;BME280;35432;43.566;1.398;2023-04-01T07:49:53;100200.66;;;12.30;62.47
49541;BME280;35432;43.566;1.398;2023-04-01T07:58:35;100188.84;;;12.61;62.00
49541;BME280;35432;43.566;1.398;2023-04-01T08:06:37;100181.19;;;13.02;60.70
49541;BME280;35432;43.566;1.398;2023-04-01T08:09:59;100171.41;;;13.09;60.82
49541;BME280;35432;43.566;1.398;2023-04-01T08:18:03;100159.97;;;13.60;60.00
49541;BME280;35432;43.566;1.398;2023-04-01T08:20:47;100151.47;;;13.91;58.82
49541;BME280;35432;43.566;1.398;2023-04-01T08:23:16;100149.72;;;14.32;57.46
49541;BME280;35432;43.566;1.398;2023-04-01T08:28:34;100136.13;;;14.89;55.58
49541;BME280;35432;43.566;1.398;2023-04-01T08:31:05;100127.75;;;15.06;54.70
49541;BME280;35432;43.566;1.398;2023-04-01T08:33:34;100139.88;;;15.16;54.98
49541;BME280;35432;43.566;1.398;2023-04-01T08:36:20;100125.88;;;15.11;54.38
49541;BME280;35432;43.566;1.398;2023-04-01T08:39:06;100131.19;;;15.11;54.35
49541;BME280;35432;43.566;1.398;2023-04-01T08:47:42;100132.03;;;15.46;52.14
49541;BME280;35432;43.566;1.398;2023-04-01T08:50:23;100135.59;;;15.45;51.48
49541;BME280;35432;43.566;1.398;2023-04-01T09:00:57;100125.59;;;15.22;49.43
49541;BME280;35432;43.566;1.398;2023-04-01T09:04:13;100124.97;;;15.12;49.03
49541;BME280;35432;43.566;1.398;2023-04-01T09:26:34;100126.59;;;15.84;46.97
49541;BME280;35432;43.566;1.398;2023-04-01T09:29:27;100113.03;;;15.95;46.13
49541;BME280;35432;43.566;1.398;2023-04-01T09:34:53;100102.44;;;15.95;45.21
49541;BME280;35432;43.566;1.398;2023-04-01T09:42:59;100092.72;;;16.24;45.39
49541;BME280;35432;43.566;1.398;2023-04-01T09:51:35;100083.53;;;16.63;43.85
49541;BME280;35432;43.566;1.398;2023-04-01T10:17:08;100049.81;;;17.92;41.27
49541;BME280;35432;43.566;1.398;2023-04-01T10:27:55;100031.56;;;18.51;39.75
49541;BME280;35432;43.566;1.398;2023-04-01T10:33:08;100031.63;;;18.92;39.42
49541;BME280;35432;43.566;1.398;2023-04-01T10:41:32;100029.63;;;18.55;39.95
49541;BME280;35432;43.566;1.398;2023-04-01T10:49:47;100029.09;;;18.24;40.23
49541;BME280;35432;43.566;1.398;2023-04-01T11:06:35;100047.28;;;16.33;45.01
49541;BME280;35432;43.566;1.398;2023-04-01T11:38:07;100088.53;;;13.60;61.43
49541;BME280;35432;43.566;1.398;2023-04-01T11:40:59;100079.59;;;13.67;60.22
49541;BME280;35432;43.566;1.398;2023-04-01T11:43:38;100073.34;;;13.71;59.82
49541;BME280;35432;43.566;1.398;2023-04-01T11:54:41;100077.41;;;13.88;56.98
49541;BME280;35432;43.566;1.398;2023-04-01T11:57:31;100050.81;;;13.94;56.84
49541;BME280;35432;43.566;1.398;2023-04-01T12:27:33;100049.53;;;14.52;53.87
49541;BME280;35432;43.566;1.398;2023-04-01T12:30:09;100046.97;;;14.47;54.20
49541;BME280;35432;43.566;1.398;2023-04-01T12:35:17;100045.34;;;14.41;54.98
49541;BME280;35432;43.566;1.398;2023-04-01T12:37:53;100040.94;;;14.42;54.90
49541;BME280;35432;43.566;1.398;2023-04-01T12:43:28;100031.06;;;14.48;54.66
49541;BME280;35432;43.566;1.398;2023-04-01T12:46:26;100030.25;;;14.45;54.31
49541;BME280;35432;43.566;1.398;2023-04-01T12:51:41;100034.78;;;14.40;54.08
49541;BME280;35432;43.566;1.398;2023-04-01T13:02:50;100031.44;;;13.92;56.11
49541;BME280;35432;43.566;1.398;2023-04-01T13:08:02;100025.88;;;13.62;58.94
49541;BME280;35432;43.566;1.398;2023-04-01T13:10:55;100036.63;;;13.54;61.09
49541;BME280;35432;43.566;1.398;2023-04-01T13:13:39;100032.28;;;13.52;60.84
49541;BME280;35432;43.566;1.398;2023-04-01T13:19:40;100065.00;;;12.94;61.69
49541;BME280;35432;43.566;1.398;2023-04-01T13:25:00;100038.50;;;12.45;62.95
49541;BME280;35432;43.566;1.398;2023-04-01T13:32:48;100016.56;;;12.40;64.49
49541;BME280;35432;43.566;1.398;2023-04-01T13:35:34;100017.44;;;12.41;63.66
49541;BME280;35432;43.566;1.398;2023-04-01T13:43:43;100013.53;;;12.09;64.40
49541;BME280;35432;43.566;1.398;2023-04-01T13:49:33;100014.25;;;12.18;65.94
49541;BME280;35432;43.566;1.398;2023-04-01T14:14:13;99977.84;;;11.78;64.92
49541;BME280;35432;43.566;1.398;2023-04-01T14:19:30;99984.84;;;11.79;64.91
49541;BME280;35432;43.566;1.398;2023-04-01T14:27:25;99994.50;;;11.80;65.08
49541;BME280;35432;43.566;1.398;2023-04-01T14:32:44;99988.41;;;11.78;65.27
49541;BME280;35432;43.566;1.398;2023-04-01T14:37:58;99997.25;;;11.74;65.87
49541;BME280;35432;43.566;1.398;2023-04-01T14:40:54;99994.66;;;11.72;66.19
49541;BME280;35432;43.566;1.398;2023-04-01T14:43:42;100003.50;;;11.65;65.87
49541;BME280;35432;43.566;1.398;2023-04-01T14:49:24;100015.03;;;11.56;66.08
49541;BME280;35432;43.566;1.398;2023-04-01T14:52:04;100029.16;;;11.52;66.91
49541;BME280;35432;43.566;1.398;2023-04-01T14:54:34;100027.50;;;11.45;66.65
49541;BME280;35432;43.566;1.398;2023-04-01T14:57:12;100046.03;;;11.37;67.66
49541;BME280;35432;43.566;1.398;2023-04-01T14:59:48;100097.09;;;11.28;67.68
49541;BME280;35432;43.566;1.398;2023-04-01T15:08:10;100119.81;;;10.12;66.87
49541;BME280;35432;43.566;1.398;2023-04-01T15:11:03;100125.19;;;9.86;68.18
49541;BME280;35432;43.566;1.398;2023-04-01T15:16:30;100122.63;;;9.52;68.89
49541;BME280;35432;43.566;1.398;2023-04-01T15:22:51;100120.03;;;9.34;70.19
49541;BME280;35432;43.566;1.398;2023-04-01T15:33:13;100077.09;;;9.53;70.68
49541;BME280;35432;43.566;1.398;2023-04-01T15:42:08;100037.63;;;9.67;69.15
49541;BME280;35432;43.566;1.398;2023-04-01T15:53:37;99986.47;;;10.19;67.98
49541;BME280;35432;43.566;1.398;2023-04-01T15:55:44;100005.63;;;10.35;67.92
49541;BME280;35432;43.566;1.398;2023-04-01T16:03:59;99999.34;;;10.59;66.64
49541;BME280;35432;43.566;1.398;2023-04-01T16:09:48;100008.09;;;10.60;66.94
49541;BME280;35432;43.566;1.398;2023-04-01T16:20:53;100019.69;;;10.40;65.60
49541;BME280;35432;43.566;1.398;2023-04-01T16:23:40;100018.84;;;10.33;65.54
49541;BME280;35432;43.566;1.398;2023-04-01T16:26:24;100027.59;;;10.36;66.40
49541;BME280;35432;43.566;1.398;2023-04-01T16:29:06;100032.84;;;10.36;66.68
49541;BME280;35432;43.566;1.398;2023-04-01T16:31:43;100036.34;;;10.38;66.42
49541;BME280;35432;43.566;1.398;2023-04-01T16:34:34;100047.78;;;10.32;66.09
49541;BME280;35432;43.566;1.398;2023-04-01T16:37:12;100061.88;;;10.26;66.72
49541;BME280;35432;43.566;1.398;2023-04-01T16:39:52;100053.97;;;10.23;67.31
49541;BME280;35432;43.566;1.398;2023-04-01T16:47:40;100065.44;;;10.14;67.63
49541;BME280;35432;43.566;1.398;2023-04-01T16:50:22;100068.03;;;10.19;67.22
49541;BME280;35432;43.566;1.398;2023-04-01T16:52:53;100068.91;;;10.19;67.30
49541;BME280;35432;43.566;1.398;2023-04-01T16:55:34;100071.53;;;10.21;67.02
49541;BME280;35432;43.566;1.398;2023-04-01T16:58:01;100067.13;;;10.23;67.10
49541;BME280;35432;43.566;1.398;2023-04-01T17:00:50;100068.00;;;10.22;67.38
49541;BME280;35432;43.566;1.398;2023-04-01T17:03:31;100076.78;;;10.21;67.06
49541;BME280;35432;43.566;1.398;2023-04-01T17:12:00;100092.59;;;10.18;66.98
49541;BME280;35432;43.566;1.398;2023-04-01T17:17:01;100093.50;;;10.18;66.56
49541;BME280;35432;43.566;1.398;2023-04-01T17:20:26;100102.25;;;10.19;66.56
49541;BME280;35432;43.566;1.398;2023-04-01T17:28:46;100089.94;;;10.24;66.59
49541;BME280;35432;43.566;1.398;2023-04-01T17:42:58;100092.69;;;10.02;65.50
49541;BME280;35432;43.566;1.398;2023-04-01T17:45:57;100088.34;;;9.89;65.09
49541;BME280;35432;43.566;1.398;2023-04-01T17:48:34;100081.34;;;9.88;65.57
49541;BME280;35432;43.566;1.398;2023-04-01T17:57:21;100085.78;;;9.70;65.69
49541;BME280;35432;43.566;1.398;2023-04-01T17:59:33;100091.06;;;9.67;65.93
49541;BME280;35432;43.566;1.398;2023-04-01T18:07:36;100113.00;;;9.55;67.43
49541;BME280;35432;43.566;1.398;2023-04-01T18:10:17;100117.38;;;9.48;68.61
49541;BME280;35432;43.566;1.398;2023-04-01T18:15:45;100136.69;;;9.38;69.23
49541;BME280;35432;43.566;1.398;2023-04-01T18:18:23;100131.47;;;9.32;69.40
49541;BME280;35432;43.566;1.398;2023-04-01T18:23:36;100146.34;;;9.31;69.49
49541;BME280;35432;43.566;1.398;2023-04-01T18:26:08;100151.59;;;9.27;70.04
49541;BME280;35432;43.566;1.398;2023-04-01T18:28:42;100154.22;;;9.25;70.56
49541;BME280;35432;43.566;1.398;2023-04-01T18:31:24;100150.72;;;9.25;70.15
49541;BME280;35432;43.566;1.398;2023-04-01T18:39:04;100164.75;;;9.25;70.56
49541;BME280;35432;43.566;1.398;2023-04-01T18:41:53;100163.88;;;9.17;69.78
49541;BME280;35432;43.566;1.398;2023-04-01T18:44:38;100163.00;;;9.07;70.00
49541;BME280;35432;43.566;1.398;2023-04-01T18:52:38;100155.97;;;8.87;70.60
49541;BME280;35432;43.566;1.398;2023-04-01T18:57:50;100153.34;;;8.81;70.70
49541;BME280;35432;43.566;1.398;2023-04-01T19:00:36;100155.94;;;8.80;70.86
49541;BME280;35432;43.566;1.398;2023-04-01T19:03:25;100152.44;;;8.81;71.22
49541;BME280;35432;43.566;1.398;2023-04-01T19:05:55;100155.97;;;8.81;70.53
49541;BME280;35432;43.566;1.398;2023-04-01T19:08:29;100154.22;;;8.80;70.96
49541;BME280;35432;43.566;1.398;2023-04-01T19:21:42;100169.09;;;8.89;71.21
49541;BME280;35432;43.566;1.398;2023-04-01T19:27:06;100173.47;;;8.88;70.75
49541;BME280;35432;43.566;1.398;2023-04-01T19:48:18;100164.69;;;8.68;71.24
49541;BME280;35432;43.566;1.398;2023-04-01T19:50:57;100171.69;;;8.72;70.88
49541;BME280;35432;43.566;1.398;2023-04-01T19:56:19;100166.44;;;8.75;70.70
49541;BME280;35432;43.566;1.398;2023-04-01T20:04:53;100174.31;;;8.69;70.80
49541;BME280;35432;43.566;1.398;2023-04-01T20:07:35;100176.94;;;8.69;70.66
49541;BME280;35432;43.566;1.398;2023-04-01T20:10:25;100177.81;;;8.68;70.90
49541;BME280;35432;43.566;1.398;2023-04-01T20:13:08;100178.69;;;8.68;70.57
49541;BME280;35432;43.566;1.398;2023-04-01T20:18:12;100168.19;;;8.60;70.77
49541;BME280;35432;43.566;1.398;2023-04-01T20:20:40;100171.69;;;8.59;70.74
49541;BME280;35432;43.566;1.398;2023-04-01T20:24:14;100173.44;;;8.60;70.91
49541;BME280;35432;43.566;1.398;2023-04-01T20:26:24;100176.91;;;8.61;70.81
49541;BME280;35432;43.566;1.398;2023-04-01T20:32:18;100199.69;;;8.60;71.49
49541;BME280;35432;43.566;1.398;2023-04-01T20:35:07;100198.78;;;8.60;71.40
49541;BME280;35432;43.566;1.398;2023-04-01T20:40:34;100203.19;;;8.63;72.24
49541;BME280;35432;43.566;1.398;2023-04-01T20:51:30;100199.63;;;8.51;72.76
49541;BME280;35432;43.566;1.398;2023-04-01T20:59:47;100192.56;;;8.38;73.97
49541;BME280;35432;43.566;1.398;2023-04-01T21:10:43;100192.56;;;8.35;73.44
49541;BME280;35432;43.566;1.398;2023-04-01T21:18:49;100196.91;;;8.28;73.25
49541;BME280;35432;43.566;1.398;2023-04-01T21:29:23;100189.88;;;8.24;73.17
49541;BME280;35432;43.566;1.398;2023-04-01T21:32:01;100181.13;;;8.20;73.43
49541;BME280;35432;43.566;1.398;2023-04-01T21:34:50;100179.38;;;8.19;73.06
49541;BME280;35432;43.566;1.398;2023-04-01T21:40:02;100185.47;;;8.15;73.06
49541;BME280;35432;43.566;1.398;2023-04-01T21:48:57;100189.81;;;8.10;73.23
49541;BME280;35432;43.566;1.398;2023-04-01T21:54:48;100194.16;;;8.08;73.27
49541;BME280;35432;43.566;1.398;2023-04-01T22:00:14;100194.16;;;8.08;73.15
49541;BME280;35432;43.566;1.398;2023-04-01T22:02:47;100196.78;;;8.06;73.02
49541;BME280;35432;43.566;1.398;2023-04-01T22:05:31;100196.78;;;8.04;72.63
49541;BME280;35432;43.566;1.398;2023-04-01T22:08:08;100195.03;;;8.02;72.73
49541;BME280;35432;43.566;1.398;2023-04-01T22:10:55;100202.00;;;7.98;72.94
49541;BME280;35432;43.566;1.398;2023-04-01T22:13:39;100209.00;;;7.98;73.02
49541;BME280;35432;43.566;1.398;2023-04-01T22:18:53;100202.84;;;7.94;73.06
49541;BME280;35432;43.566;1.398;2023-04-01T22:22:11;100196.69;;;7.90;73.17
49541;BME280;35432;43.566;1.398;2023-04-01T22:24:37;100200.19;;;7.93;73.41
49541;BME280;35432;43.566;1.398;2023-04-01T22:29:48;100211.59;;;7.93;72.78
49541;BME280;35432;43.566;1.398;2023-04-01T22:32:31;100215.97;;;7.94;73.23
49541;BME280;35432;43.566;1.398;2023-04-01T22:35:17;100211.59;;;7.93;73.37
49541;BME280;35432;43.566;1.398;2023-04-01T22:43:36;100216.81;;;7.95;73.17